Time;durP1;ratioP1;P1;durP2;ratioP2;P2;SDS_P1;SDS_P2;PMS_P1;PMS_P2;Temp;Humidity;BMP_temperature;BMP_pressure;BME280_temperature;BME280_humidity;BME280_pressure;Samples;Min_cycle;Max_cycle;Signal;HPM_P1;HPM_P2
2022/02/01 00:00:13;;;;;;;0.40;0.30;;;;;;;2.94;97.05;100632.13;5033326;28;20442;-74
2022/02/01 00:02:45;;;;;;;0.40;0.30;;;;;;;2.96;96.98;100619.28;5033578;28;20431;-74
2022/02/01 00:05:18;;;;;;;0.40;0.27;;;;;;;2.95;96.84;100607.78;5033457;28;20443;-74
2022/02/01 00:07:54;;;;;;;0.40;0.20;;;;;;;3.03;96.83;100617.25;5033083;28;20459;-74
2022/02/01 00:10:34;;;;;;;0.50;0.20;;;;;;;3.02;96.12;100626.34;5033388;28;20542;-74
2022/02/01 00:13:08;;;;;;;0.40;0.20;;;;;;;2.98;96.75;100633.25;5033349;28;20467;-75
2022/02/01 00:35:09;;;;;;;0.40;0.30;;;;;;;2.95;98.11;100669.31;5032970;28;20438;-74
2022/02/01 00:37:50;;;;;;;0.40;0.30;;;;;;;2.92;98.54;100659.13;5032859;28;20442;-74
2022/02/01 00:40:16;;;;;;;0.40;0.30;;;;;;;2.95;98.53;100653.28;5033089;28;20561;-74
2022/02/01 00:42:43;;;;;;;0.40;0.20;;;;;;;2.92;98.71;100656.47;5033124;28;20498;-74
2022/02/01 00:45:09;;;;;;;0.40;0.27;;;;;;;2.90;99.31;100657.75;5033052;28;20443;-74
2022/02/01 00:47:36;;;;;;;0.40;0.30;;;;;;;2.95;98.95;100673.88;5033075;28;20458;-74
2022/02/01 00:50:02;;;;;;;0.40;0.30;;;;;;;2.93;99.48;100681.34;5032966;28;20459;-74
2022/02/01 00:52:30;;;;;;;0.40;0.30;;;;;;;2.95;99.32;100676.53;5032894;28;20494;-74
2022/02/01 00:54:57;;;;;;;0.40;0.20;;;;;;;2.98;99.42;100684.06;5032959;28;20451;-74
2022/02/01 00:57:24;;;;;;;0.40;0.23;;;;;;;3.02;99.21;100694.03;5032898;28;20442;-74
2022/02/01 00:59:50;;;;;;;0.40;0.30;;;;;;;3.02;98.84;100687.88;5032836;28;20466;-74
2022/02/01 01:02:17;;;;;;;0.40;0.30;;;;;;;3.03;98.96;100692.16;5032907;28;20468;-74
2022/02/01 01:04:43;;;;;;;0.40;0.30;;;;;;;3.01;99.21;100684.41;5032894;28;20473;-74
2022/02/01 01:07:09;;;;;;;0.40;0.30;;;;;;;3.01;99.48;100697.78;5032408;28;20936;-74
2022/02/01 01:09:36;;;;;;;0.40;0.23;;;;;;;3.03;99.31;100692.16;5032821;28;20431;-74
2022/02/01 01:12:05;;;;;;;0.40;0.30;;;;;;;2.99;99.63;100683.00;5032712;28;20524;-74
2022/02/01 01:44:51;;;;;;;0.40;0.20;;;;;;;2.77;100.00;100662.41;5035951;28;20928;-74
2022/02/01 01:55:30;;;;;;;0.40;0.20;;;;;;;2.87;100.00;100661.72;5033595;28;20885;-74
2022/02/01 01:57:56;;;;;;;0.40;0.20;;;;;;;2.88;100.00;100657.19;5035760;28;20447;-74
2022/02/01 02:00:39;;;;;;;0.40;0.30;;;;;;;2.94;100.00;100661.56;5035365;28;20880;-74
2022/02/01 02:03:06;;;;;;;0.40;0.30;;;;;;;2.91;99.60;100665.53;5035711;28;20824;-74
2022/02/01 02:05:32;;;;;;;0.40;0.30;;;;;;;2.95;99.56;100655.13;5035642;28;20443;-74
2022/02/01 02:07:59;;;;;;;0.40;0.30;;;;;;;2.93;99.63;100654.59;5035385;28;20455;-74
2022/02/01 02:10:29;;;;;;;0.40;0.20;;;;;;;2.94;99.52;100648.97;5035500;28;20458;-74
2022/02/01 02:14:16;;;;;;;0.40;0.30;;;;;;;2.98;99.50;100660.00;5035511;28;20470;-74
2022/02/01 02:15:55;;;;;;;0.40;0.20;;;;;;;3.01;99.39;100656.81;5035077;28;20443;-74
2022/02/01 02:18:22;;;;;;;0.40;0.30;;;;;;;3.01;99.39;100652.28;5035563;28;20430;-74
2022/02/01 02:20:50;;;;;;;0.40;0.30;;;;;;;3.02;99.61;100658.44;5035275;28;20470;-74
2022/02/01 02:23:17;;;;;;;0.40;0.27;;;;;;;3.04;99.70;100654.44;5035360;28;20474;-74
2022/02/01 02:25:44;;;;;;;0.40;0.20;;;;;;;3.12;99.66;100658.56;5035369;28;20447;-74
2022/02/01 02:28:13;;;;;;;0.40;0.30;;;;;;;3.12;99.88;100650.53;5035272;28;20465;-74
2022/02/01 02:30:40;;;;;;;0.40;0.20;;;;;;;3.13;99.73;100649.47;5034876;28;20471;-73
2022/02/01 02:33:10;;;;;;;0.40;0.20;;;;;;;3.19;99.17;100653.84;5034857;28;21003;-74
2022/02/01 02:35:42;;;;;;;0.40;0.30;;;;;;;3.21;99.16;100643.69;5034895;28;20466;-73
2022/02/01 02:38:15;;;;;;;0.40;0.30;;;;;;;3.25;99.36;100652.03;5035043;28;20511;-74
2022/02/01 02:40:58;;;;;;;0.40;0.20;;;;;;;3.27;99.61;100648.03;5034979;28;20462;-74
2022/02/01 02:46:14;;;;;;;1.40;1.30;;;;;;;3.27;99.24;100645.34;4978706;28;20536;-74
2022/02/01 02:48:41;;;;;;;0.40;0.30;;;;;;;3.31;99.21;100648.34;5034136;28;20478;-74
2022/02/01 02:51:07;;;;;;;0.40;0.20;;;;;;;3.37;99.23;100649.22;5034738;28;20467;-73
2022/02/01 02:53:35;;;;;;;1.70;1.60;;;;;;;3.36;98.91;100653.75;5034487;28;20833;-74
2022/02/01 02:56:06;;;;;;;0.40;0.30;;;;;;;3.34;99.28;100655.06;5034731;28;20447;-74
2022/02/01 02:58:33;;;;;;;0.40;0.30;;;;;;;3.39;99.12;100644.41;5034445;28;20901;-74
2022/02/01 03:00:59;;;;;;;0.40;0.20;;;;;;;3.40;98.98;100643.34;5034598;28;20467;-74
2022/02/01 03:03:26;;;;;;;0.40;0.30;;;;;;;3.41;98.73;100645.78;5034569;28;20443;-74
2022/02/01 03:05:53;;;;;;;0.40;0.30;;;;;;;3.40;98.86;100646.03;5034218;28;20945;-74
2022/02/01 03:08:22;;;;;;;0.40;0.30;;;;;;;3.39;98.55;100636.38;5034140;28;20470;-74
2022/02/01 03:10:50;;;;;;;1.80;1.70;;;;;;;3.40;99.03;100632.63;5034393;28;20462;-74
2022/02/01 03:13:21;;;;;;;0.40;0.30;;;;;;;3.34;99.12;100639.81;5034300;28;20475;-74
2022/02/01 03:15:54;;;;;;;0.40;0.30;;;;;;;3.43;99.11;100637.50;5034378;28;20434;-74
2022/02/01 03:21:04;;;;;;;0.40;0.20;;;;;;;3.49;98.04;100625.75;5034130;28;20540;-74
2022/02/01 03:23:30;;;;;;;0.40;0.30;;;;;;;3.52;97.85;100631.41;5034162;28;20455;-74
2022/02/01 03:25:58;;;;;;;1.70;1.60;;;;;;;3.50;97.32;100627.41;5034150;28;20447;-74
2022/02/01 03:28:25;;;;;;;0.87;0.87;;;;;;;3.48;97.39;100624.97;5033879;28;20436;-74
2022/02/01 03:30:51;;;;;;;0.40;0.20;;;;;;;3.50;97.88;100627.41;5033706;28;20474;-74
2022/02/01 03:33:17;;;;;;;0.40;0.30;;;;;;;3.53;97.68;100630.34;5033988;28;20517;-73
2022/02/01 03:35:44;;;;;;;0.40;0.27;;;;;;;3.56;97.38;100631.72;5033984;28;20458;-75
2022/02/01 03:38:10;;;;;;;0.40;0.30;;;;;;;3.54;96.96;100640.03;5033905;28;20447;-74
2022/02/01 03:40:37;;;;;;;0.40;0.20;;;;;;;3.52;96.92;100646.69;5033801;28;20465;-74
2022/02/01 03:43:04;;;;;;;0.40;0.30;;;;;;;3.36;97.32;100643.03;5033584;28;20936;-74
2022/02/01 03:45:31;;;;;;;0.40;0.30;;;;;;;3.37;97.68;100652.69;5033330;28;20944;-74
2022/02/01 03:47:58;;;;;;;1.60;1.13;;;;;;;3.34;97.45;100652.38;5033511;28;20442;-74
2022/02/01 03:50:24;;;;;;;0.40;0.20;;;;;;;3.34;97.23;100655.88;5033047;28;21062;-74
2022/02/01 03:52:52;;;;;;;0.40;0.30;;;;;;;3.34;97.25;100655.06;5033328;28;20504;-74
2022/02/01 03:55:19;;;;;;;0.40;0.30;;;;;;;3.32;97.45;100657.16;5033555;28;20482;-74
2022/02/01 03:57:45;;;;;;;0.40;0.30;;;;;;;3.29;97.99;100659.31;5033190;28;21006;-74
2022/02/01 04:00:15;;;;;;;0.40;0.30;;;;;;;3.33;97.50;100658.81;5033464;28;20871;-74
2022/02/01 04:02:41;;;;;;;0.40;0.30;;;;;;;3.33;97.75;100659.63;5033014;28;20439;-74
2022/02/01 04:05:08;;;;;;;0.40;0.30;;;;;;;3.31;98.06;100650.19;5033509;28;20447;-74
2022/02/01 04:07:35;;;;;;;0.40;0.30;;;;;;;3.32;97.83;100641.09;5033343;28;20463;-74
2022/02/01 04:10:01;;;;;;;0.50;0.47;;;;;;;3.35;97.06;100640.63;5033723;28;20471;-74
2022/02/01 04:12:29;;;;;;;0.40;0.30;;;;;;;3.33;96.92;100632.84;5033223;28;20439;-74
2022/02/01 04:14:57;;;;;;;0.40;0.20;;;;;;;3.26;97.08;100635.69;5033275;28;20482;-74
2022/02/01 04:17:25;;;;;;;0.40;0.30;;;;;;;3.22;97.55;100626.56;5033211;28;20546;-74
2022/02/01 04:19:52;;;;;;;0.40;0.30;;;;;;;3.24;97.66;100623.66;5033064;28;20569;-74
2022/02/01 04:22:18;;;;;;;0.40;0.30;;;;;;;3.31;97.31;100626.13;5032795;28;20944;-74
2022/02/01 04:24:46;;;;;;;0.87;0.87;;;;;;;3.33;97.34;100626.69;5033099;28;20447;-74
2022/02/01 04:27:25;;;;;;;1.47;1.37;;;;;;;3.29;97.06;100615.66;5033229;28;20443;-74
2022/02/01 04:29:59;;;;;;;0.40;0.30;;;;;;;3.26;97.31;100600.91;5033095;28;20565;-74
2022/02/01 04:32:27;;;;;;;0.40;0.30;;;;;;;3.27;96.91;100604.38;5032983;28;20439;-73
2022/02/01 04:34:59;;;;;;;0.40;0.30;;;;;;;3.25;97.12;100593.94;5033159;28;20443;-74
2022/02/01 04:37:26;;;;;;;0.40;0.30;;;;;;;3.24;97.44;100592.34;5032859;28;20997;-74
2022/02/01 04:39:52;;;;;;;0.40;0.20;;;;;;;3.22;97.31;100577.56;5033006;28;20459;-74
2022/02/01 04:42:19;;;;;;;0.40;0.40;;;;;;;3.23;97.53;100580.03;5032800;28;20940;-74
2022/02/01 04:44:45;;;;;;;0.40;0.30;;;;;;;3.24;97.32;100576.28;5033088;28;20443;-74
2022/02/01 04:47:12;;;;;;;1.63;1.53;;;;;;;3.25;97.23;100574.41;5033041;28;20454;-74
2022/02/01 04:49:40;;;;;;;0.40;0.30;;;;;;;3.23;97.40;100560.44;5032917;28;20447;-74
2022/02/01 04:52:07;;;;;;;0.40;0.30;;;;;;;3.24;97.41;100570.91;5032968;28;20438;-74
2022/02/01 04:54:33;;;;;;;0.40;0.30;;;;;;;3.15;97.95;100561.72;5032895;28;20512;-73
2022/02/01 04:57:00;;;;;;;0.40;0.30;;;;;;;3.17;97.87;100566.81;5033001;28;20817;-74
2022/02/01 04:59:26;;;;;;;0.40;0.30;;;;;;;3.16;98.32;100576.72;5032908;28;20478;-73
2022/02/01 05:01:52;;;;;;;0.40;0.30;;;;;;;3.08;98.95;100566.47;5032867;28;20467;-74
2022/02/01 05:04:20;;;;;;;0.40;0.30;;;;;;;2.99;99.38;100570.66;5032574;28;20447;-74
2022/02/01 05:06:49;;;;;;;0.40;0.30;;;;;;;2.88;100.00;100577.75;5032882;28;20996;-74
2022/02/01 05:09:15;;;;;;;0.40;0.30;;;;;;;2.83;100.00;100571.53;5032528;28;20459;-74
2022/02/01 05:11:42;;;;;;;0.40;0.30;;;;;;;2.77;100.00;100565.31;5035636;28;20466;-74
2022/02/01 05:14:13;;;;;;;0.40;0.27;;;;;;;2.71;100.00;100579.69;5036247;28;20489;-74
2022/02/01 05:16:46;;;;;;;0.43;0.30;;;;;;;2.65;100.00;100575.31;5036293;28;20529;-74
2022/02/01 05:19:22;;;;;;;0.40;0.30;;;;;;;2.60;100.00;100581.41;5036672;28;20443;-73
2022/02/01 05:21:51;;;;;;;0.40;0.30;;;;;;;2.48;100.00;100562.03;5036505;28;20471;-73
2022/02/01 05:24:19;;;;;;;0.40;0.30;;;;;;;2.37;100.00;100558.41;5036437;28;20454;-73
2022/02/01 05:26:46;;;;;;;0.40;0.30;;;;;;;2.30;100.00;100562.31;5036391;28;20451;-73
2022/02/01 05:29:13;;;;;;;0.40;0.30;;;;;;;2.23;100.00;100563.28;5037823;28;20449;-72
2022/02/01 05:31:39;;;;;;;0.40;0.30;;;;;;;2.19;100.00;100572.84;5036223;28;20493;-72
2022/02/01 05:34:05;;;;;;;0.40;0.30;;;;;;;2.20;100.00;100571.78;5035888;28;21038;-73
2022/02/01 05:36:32;;;;;;;0.40;0.27;;;;;;;2.15;100.00;100573.59;5036345;28;20447;-73
2022/02/01 05:39:00;;;;;;;0.40;0.30;;;;;;;2.15;100.00;100579.75;5035914;28;20454;-72
2022/02/01 05:41:27;;;;;;;0.40;0.30;;;;;;;2.15;100.00;100579.75;5036163;28;20462;-72
2022/02/01 05:43:54;;;;;;;0.40;0.30;;;;;;;2.18;100.00;100584.59;5036177;28;20868;-72
2022/02/01 05:46:20;;;;;;;0.40;0.30;;;;;;;2.21;100.00;100584.13;5036054;28;20489;-72
2022/02/01 05:48:47;;;;;;;0.40;0.30;;;;;;;2.25;100.00;100585.22;5036316;28;20455;-72
2022/02/01 05:51:13;;;;;;;0.40;0.30;;;;;;;2.24;100.00;100591.63;5035619;28;21019;-71
2022/02/01 05:53:40;;;;;;;1.50;1.47;;;;;;;2.26;100.00;100586.88;5035842;28;20486;-72
2022/02/01 05:56:08;;;;;;;0.40;0.30;;;;;;;2.32;100.00;100584.25;5035939;28;20443;-72
2022/02/01 05:58:34;;;;;;;0.40;0.30;;;;;;;2.31;100.00;100591.47;5035834;28;20439;-71
2022/02/01 06:01:00;;;;;;;0.40;0.30;;;;;;;2.33;100.00;100596.56;5035720;28;20467;-72
2022/02/01 06:03:27;;;;;;;0.40;0.30;;;;;;;2.36;100.00;100596.88;5035774;28;20439;-72
2022/02/01 06:05:53;;;;;;;0.40;0.20;;;;;;;2.40;100.00;100592.66;5035759;28;20857;-72
2022/02/01 06:08:20;;;;;;;0.50;0.30;;;;;;;2.39;100.00;100591.06;5035278;28;20485;-72
2022/02/01 06:10:47;;;;;;;0.40;0.30;;;;;;;2.38;100.00;100591.28;5035493;28;20478;-72
2022/02/01 06:13:15;;;;;;;0.40;0.30;;;;;;;2.42;100.00;100595.06;5035523;28;20529;-72
2022/02/01 06:15:41;;;;;;;0.40;0.30;;;;;;;2.46;100.00;100590.88;5035229;28;20803;-72
2022/02/01 06:18:08;;;;;;;0.50;0.47;;;;;;;2.50;100.00;100594.66;5035561;28;20455;-72
2022/02/01 06:20:35;;;;;;;0.40;0.30;;;;;;;2.52;100.00;100593.38;5035352;28;20474;-72
2022/02/01 06:23:02;;;;;;;0.40;0.30;;;;;;;2.54;100.00;100598.47;5035222;28;20443;-72
2022/02/01 06:25:48;;;;;;;0.40;0.20;;;;;;;2.58;100.00;100598.78;5035054;28;20892;-72
2022/02/01 06:28:17;;;;;;;0.40;0.20;;;;;;;2.57;100.00;100599.81;5035360;28;20437;-72
2022/02/01 06:30:43;;;;;;;0.40;0.20;;;;;;;2.58;100.00;100609.47;5035195;28;20455;-72
2022/02/01 06:33:10;;;;;;;0.40;0.30;;;;;;;2.55;100.00;100617.97;5035108;28;20454;-72
2022/02/01 06:35:37;;;;;;;0.40;0.30;;;;;;;2.52;100.00;100616.59;5035116;28;20509;-72
2022/02/01 06:38:03;;;;;;;0.40;0.30;;;;;;;2.56;100.00;100623.06;5035139;28;20446;-72
2022/02/01 06:40:30;;;;;;;0.40;0.30;;;;;;;2.58;100.00;100618.31;5034911;28;20479;-72
2022/02/01 06:42:57;;;;;;;0.40;0.30;;;;;;;2.58;100.00;100626.31;5034992;28;20438;-72
2022/02/01 06:45:27;;;;;;;0.40;0.30;;;;;;;2.61;100.00;100616.97;5035005;28;20447;-72
2022/02/01 06:47:53;;;;;;;0.40;0.30;;;;;;;2.62;100.00;100619.44;5035335;28;20471;-72
2022/02/01 06:50:21;;;;;;;0.40;0.30;;;;;;;2.62;100.00;100619.44;5034597;28;20463;-72
2022/02/01 06:52:54;;;;;;;0.40;0.30;;;;;;;2.65;100.00;100616.25;5034882;28;20458;-72
2022/02/01 06:55:31;;;;;;;0.40;0.30;;;;;;;2.67;100.00;100613.34;5034784;28;20471;-72
2022/02/01 06:57:57;;;;;;;0.40;0.30;;;;;;;2.69;100.00;100598.66;5034737;28;20908;-72
2022/02/01 07:00:25;;;;;;;0.40;0.20;;;;;;;2.72;100.00;100602.69;5034579;28;20513;-72
2022/02/01 07:02:52;;;;;;;0.40;0.30;;;;;;;2.68;100.00;100597.03;5034640;28;20439;-72
2022/02/01 07:05:18;;;;;;;0.40;0.30;;;;;;;2.72;100.00;100605.38;5034256;28;20976;-73
2022/02/01 07:07:45;;;;;;;0.40;0.30;;;;;;;2.74;100.00;100603.25;5034407;28;20463;-72
2022/02/01 07:10:12;;;;;;;0.40;0.30;;;;;;;2.70;100.00;100592.25;5034443;28;20459;-72
2022/02/01 07:12:38;;;;;;;0.70;0.70;;;;;;;2.71;100.00;100593.88;5034424;28;20431;-72
2022/02/01 07:15:05;;;;;;;0.40;0.20;;;;;;;2.71;100.00;100590.38;5034352;28;20900;-72
2022/02/01 07:17:43;;;;;;;0.40;0.30;;;;;;;2.76;100.00;100596.59;5034058;28;20501;-72
2022/02/01 07:20:10;;;;;;;0.40;0.30;;;;;;;2.78;100.00;100593.66;5034291;28;20467;-72
2022/02/01 07:22:37;;;;;;;0.40;0.30;;;;;;;2.81;100.00;100589.69;5034229;28;20450;-72
2022/02/01 07:25:13;;;;;;;0.40;0.30;;;;;;;2.85;100.00;100593.50;5033973;28;20933;-72
2022/02/01 07:27:42;;;;;;;0.40;0.30;;;;;;;2.89;100.00;100594.63;5034237;28;20438;-72
2022/02/01 07:30:11;;;;;;;0.40;0.30;;;;;;;2.87;100.00;100592.16;5034028;28;20546;-72
2022/02/01 07:32:39;;;;;;;0.53;0.53;;;;;;;2.88;100.00;100601.84;5033825;28;20466;-72
2022/02/01 07:35:07;;;;;;;7.43;7.07;;;;;;;2.81;100.00;100592.38;5033751;28;20486;-72
2022/02/01 07:37:33;;;;;;;0.40;0.40;;;;;;;2.80;100.00;100586.22;5034033;28;20443;-72
2022/02/01 07:40:02;;;;;;;0.40;0.30;;;;;;;2.78;100.00;100589.13;5033845;28;20463;-72
2022/02/01 07:42:28;;;;;;;0.40;0.30;;;;;;;2.81;100.00;100576.31;5033893;28;20451;-72
2022/02/01 07:44:58;;;;;;;0.40;0.30;;;;;;;2.80;100.00;100588.91;5033867;28;20447;-72
2022/02/01 07:47:25;;;;;;;0.40;0.30;;;;;;;2.84;100.00;100586.53;5033839;28;20501;-72
2022/02/01 07:49:52;;;;;;;0.40;0.30;;;;;;;2.88;100.00;100584.94;5033583;28;21814;-74
2022/02/01 07:52:20;;;;;;;0.40;0.20;;;;;;;2.92;100.00;100575.38;5033490;28;20451;-72
2022/02/01 07:54:47;;;;;;;0.40;0.30;;;;;;;2.91;100.00;100587.13;5033655;28;20487;-72
2022/02/01 07:57:14;;;;;;;0.40;0.30;;;;;;;2.94;100.00;100590.13;5033692;28;20453;-72
2022/02/01 07:59:41;;;;;;;0.40;0.20;;;;;;;2.98;100.00;100593.91;5033580;28;20446;-74
2022/02/01 08:02:17;;;;;;;0.40;0.30;;;;;;;3.00;100.00;100585.63;5033583;28;20443;-72
2022/02/01 08:04:43;;;;;;;0.40;0.30;;;;;;;3.02;100.00;100594.25;5033588;28;20803;-72
2022/02/01 08:07:11;;;;;;;0.40;0.30;;;;;;;3.08;100.00;100590.53;5033420;28;20485;-71
2022/02/01 08:09:41;;;;;;;0.40;0.30;;;;;;;3.09;100.00;100588.69;5033462;28;20438;-72
2022/02/01 08:12:17;;;;;;;0.40;0.30;;;;;;;3.14;100.00;100592.22;5033187;28;20497;-71
2022/02/01 08:17:42;;;;;;;0.40;0.30;;;;;;;3.26;100.00;100589.41;5033048;28;20470;-72
2022/02/01 08:20:13;;;;;;;0.40;0.30;;;;;;;3.28;100.00;100582.75;5033310;28;20498;-72
2022/02/01 08:23:01;;;;;;;0.40;0.30;;;;;;;3.35;100.00;100582.53;5033435;28;20424;-72
2022/02/01 08:25:27;;;;;;;0.40;0.20;;;;;;;3.38;100.00;100581.22;5033321;28;20427;-72
2022/02/01 08:27:55;;;;;;;0.40;0.30;;;;;;;3.38;100.00;100573.19;5033246;28;20493;-72
2022/02/01 08:30:23;;;;;;;0.40;0.20;;;;;;;3.43;100.00;100566.00;5033171;28;20471;-72
2022/02/01 08:32:50;;;;;;;0.40;0.30;;;;;;;3.49;100.00;100564.19;5033197;28;20453;-72
2022/02/01 08:35:17;;;;;;;0.40;0.20;;;;;;;3.54;100.00;100574.94;5033103;28;20483;-72
2022/02/01 08:37:44;;;;;;;0.40;0.30;;;;;;;3.61;100.00;100580.88;5032848;28;20948;-72
2022/02/01 08:40:13;;;;;;;0.40;0.30;;;;;;;3.57;100.00;100571.75;5033051;28;20463;-72
2022/02/01 08:42:40;;;;;;;0.40;0.30;;;;;;;3.53;100.00;100568.78;5033075;28;20482;-72
2022/02/01 08:45:09;;;;;;;0.40;0.20;;;;;;;3.55;100.00;100571.22;5033453;28;20435;-72
2022/02/01 08:47:35;;;;;;;0.40;0.20;;;;;;;3.61;100.00;100582.75;5037184;28;20449;-72
2022/02/01 08:50:02;;;;;;;0.40;0.20;;;;;;;3.67;100.00;100569.16;5037079;28;20470;-72
2022/02/01 08:52:38;;;;;;;0.40;0.30;;;;;;;3.72;100.00;100568.41;5037187;28;20451;-72
2022/02/01 08:55:10;;;;;;;0.40;0.30;;;;;;;3.80;100.00;100549.16;5036890;28;20475;-72
2022/02/01 08:57:36;;;;;;;0.40;0.30;;;;;;;3.79;100.00;100539.50;5037057;28;20443;-72
2022/02/01 09:00:07;;;;;;;0.40;0.20;;;;;;;3.83;100.00;100535.25;5036867;28;20467;-72
2022/02/01 09:02:33;;;;;;;0.40;0.30;;;;;;;3.90;100.00;100527.03;5036949;28;20427;-72
2022/02/01 09:05:00;;;;;;;0.40;0.30;;;;;;;3.92;100.00;100525.69;5036836;28;20442;-72
2022/02/01 09:07:27;;;;;;;0.40;0.20;;;;;;;4.01;99.84;100515.28;5036533;28;20474;-72
2022/02/01 09:09:55;;;;;;;0.40;0.30;;;;;;;4.03;99.26;100510.50;5036752;28;20459;-72
2022/02/01 09:12:23;;;;;;;0.40;0.30;;;;;;;4.00;98.96;100502.97;5036905;28;20443;-72
2022/02/01 09:14:51;;;;;;;0.40;0.20;;;;;;;4.04;99.02;100504.84;5036248;28;20520;-71
2022/02/01 09:17:18;;;;;;;0.40;0.20;;;;;;;4.10;99.46;100511.03;5036543;28;20451;-72
2022/02/01 09:19:45;;;;;;;0.40;0.30;;;;;;;4.14;99.41;100495.25;5036475;28;20443;-72
2022/02/01 09:22:13;;;;;;;0.40;0.20;;;;;;;4.08;98.36;100494.44;5036545;28;20481;-71
2022/02/01 09:24:41;;;;;;;0.40;0.30;;;;;;;4.06;98.73;100496.53;5036458;28;20439;-72
2022/02/01 09:27:09;;;;;;;0.40;0.20;;;;;;;4.15;98.99;100488.81;5036418;28;20439;-71
2022/02/01 09:29:38;;;;;;;0.40;0.30;;;;;;;4.19;98.34;100488.03;5036336;28;20512;-72
2022/02/01 09:32:05;;;;;;;0.40;0.30;;;;;;;4.25;98.87;100481.66;5036354;28;20447;-71
2022/02/01 09:34:32;;;;;;;0.40;0.20;;;;;;;4.25;98.05;100481.66;5036198;28;20859;-72
2022/02/01 09:37:00;;;;;;;0.40;0.20;;;;;;;4.28;98.08;100478.44;5036313;28;20447;-72
2022/02/01 09:39:27;;;;;;;0.40;0.20;;;;;;;4.25;97.58;100473.63;5035953;28;20450;-72
2022/02/01 09:41:54;;;;;;;0.40;0.30;;;;;;;4.22;97.41;100463.41;5036135;28;20461;-72
2022/02/01 09:44:21;;;;;;;0.40;0.20;;;;;;;4.23;98.15;100459.66;5036176;28;20489;-72
2022/02/01 09:46:52;;;;;;;0.40;0.30;;;;;;;4.26;98.63;100459.13;5036380;28;20458;-73
2022/02/01 09:49:22;;;;;;;0.40;0.23;;;;;;;4.30;97.98;100435.28;5035836;28;20909;-72
2022/02/01 09:51:51;;;;;;;0.40;0.30;;;;;;;4.34;97.77;100430.19;5035952;28;20463;-72
2022/02/01 09:54:17;;;;;;;0.40;0.20;;;;;;;4.38;98.45;100433.94;5035884;28;20910;-72
2022/02/01 09:56:44;;;;;;;0.40;0.27;;;;;;;4.43;98.57;100424.06;5035336;28;20443;-72
2022/02/01 09:59:19;;;;;;;0.40;0.27;;;;;;;4.41;97.61;100423.50;5035848;28;20451;-72
2022/02/01 10:01:47;;;;;;;0.40;0.30;;;;;;;4.47;97.12;100427.00;5035754;28;20474;-72
2022/02/01 10:04:15;;;;;;;0.40;0.30;;;;;;;4.55;97.40;100419.25;5035853;28;20563;-72
2022/02/01 10:06:42;;;;;;;0.40;0.23;;;;;;;4.55;97.73;100419.25;5035708;28;20443;-71
2022/02/01 10:09:10;;;;;;;0.40;0.20;;;;;;;4.46;97.07;100414.69;5035413;28;20497;-72
2022/02/01 10:11:37;;;;;;;0.40;0.20;;;;;;;4.51;96.72;100403.97;5034746;28;20903;-73
2022/02/01 10:14:06;;;;;;;0.40;0.20;;;;;;;4.57;97.17;100416.31;5035983;28;20816;-72
2022/02/01 10:16:41;;;;;;;0.40;0.20;;;;;;;4.61;96.82;100408.56;5036254;28;20531;-72
2022/02/01 10:19:08;;;;;;;0.40;0.20;;;;;;;4.66;96.85;100405.88;5036022;28;20437;-72
2022/02/01 10:21:36;;;;;;;0.40;0.20;;;;;;;4.64;96.86;100394.59;5035747;28;20459;-72
2022/02/01 10:24:06;;;;;;;0.40;0.20;;;;;;;4.64;96.93;100402.63;5034720;28;20451;-72
2022/02/01 10:26:34;;;;;;;0.40;0.30;;;;;;;4.61;95.90;100401.31;5035253;28;20440;-72
2022/02/01 10:29:06;;;;;;;0.40;0.30;;;;;;;4.54;95.70;100396.19;5035034;28;20967;-72
2022/02/01 10:31:39;;;;;;;0.40;0.30;;;;;;;4.56;95.63;100371.81;5035167;28;20478;-72
2022/02/01 10:34:29;;;;;;;0.40;0.30;;;;;;;4.62;96.00;100368.03;5034961;28;20942;-72
2022/02/01 10:37:01;;;;;;;0.40;0.20;;;;;;;4.67;96.23;100369.94;5035253;28;20531;-72
2022/02/01 10:39:29;;;;;;;0.40;0.30;;;;;;;4.70;95.72;100364.03;5035195;28;20431;-72
2022/02/01 10:41:58;;;;;;;0.40;0.23;;;;;;;4.68;94.65;100353.56;5034658;28;20988;-72
2022/02/01 10:44:37;;;;;;;0.40;0.27;;;;;;;4.67;95.60;100348.47;5035035;28;20448;-72
2022/02/01 10:47:04;;;;;;;0.50;0.30;;;;;;;4.72;95.43;100335.84;5035062;28;20546;-72
2022/02/01 10:49:32;;;;;;;0.40;0.20;;;;;;;4.69;94.65;100335.56;5034633;28;20925;-72
2022/02/01 10:52:04;;;;;;;0.40;0.30;;;;;;;4.74;94.57;100340.97;5034574;28;20995;-72
2022/02/01 10:54:32;;;;;;;0.40;0.20;;;;;;;4.78;94.83;100337.47;5034773;28;20443;-72
2022/02/01 10:56:59;;;;;;;0.40;0.30;;;;;;;4.76;94.82;100320.84;5034777;28;20450;-73
2022/02/01 10:59:26;;;;;;;0.40;0.30;;;;;;;4.79;94.52;100320.31;5034446;28;20443;-73
2022/02/01 11:01:55;;;;;;;0.40;0.30;;;;;;;4.74;94.12;100309.56;5034269;28;20870;-72
2022/02/01 11:04:22;;;;;;;0.40;0.20;;;;;;;4.79;94.21;100298.84;5033893;28;21001;-72
2022/02/01 11:06:50;;;;;;;0.40;0.20;;;;;;;4.79;94.41;100292.66;5034622;28;20451;-72
2022/02/01 11:09:19;;;;;;;0.40;0.20;;;;;;;4.83;94.84;100290.25;5033378;28;20459;-72
2022/02/01 11:11:53;;;;;;;0.40;0.30;;;;;;;4.84;94.65;100267.72;5034091;28;20518;-72
2022/02/01 11:14:21;;;;;;;0.40;0.30;;;;;;;4.81;94.84;100269.03;5034477;28;20443;-71
2022/02/01 11:16:47;;;;;;;0.40;0.20;;;;;;;4.82;95.30;100254.53;5034346;28;20513;-71
2022/02/01 11:19:14;;;;;;;0.40;0.30;;;;;;;4.81;95.52;100248.38;5034392;28;20443;-71
2022/02/01 11:21:46;;;;;;;0.40;0.20;;;;;;;4.89;96.13;100243.56;5034238;28;20554;-71
2022/02/01 11:24:31;;;;;;;0.40;0.20;;;;;;;4.90;95.43;100234.41;5033974;28;20907;-72
2022/02/01 11:27:03;;;;;;;0.40;0.20;;;;;;;4.89;95.85;100217.53;5033899;28;20434;-71
2022/02/01 11:29:39;;;;;;;0.40;0.20;;;;;;;4.94;95.54;100217.50;5035455;28;20438;-73
2022/02/01 11:32:17;;;;;;;0.40;0.20;;;;;;;4.98;94.89;100212.41;5034130;28;20432;-73
2022/02/01 11:34:43;;;;;;;0.40;0.30;;;;;;;4.98;94.47;100201.66;5034056;28;20463;-73
2022/02/01 11:37:15;;;;;;;0.40;0.30;;;;;;;4.99;94.17;100203.25;5033700;28;20847;-73
2022/02/01 11:39:50;;;;;;;0.40;0.30;;;;;;;5.03;94.49;100190.91;5033928;28;20471;-73
2022/02/01 11:42:18;;;;;;;0.40;0.20;;;;;;;5.03;94.34;100174.81;5033937;28;20423;-73
2022/02/01 11:44:45;;;;;;;0.40;0.20;;;;;;;5.05;94.23;100180.72;5033867;28;20447;-73
2022/02/01 11:47:13;;;;;;;0.40;0.30;;;;;;;5.06;93.67;100172.38;5033799;28;20439;-73
2022/02/01 11:49:52;;;;;;;0.40;0.20;;;;;;;5.14;92.98;100170.22;5033747;28;20442;-72
2022/02/01 11:52:19;;;;;;;0.40;0.20;;;;;;;5.24;93.67;100162.09;5033491;28;20431;-73
2022/02/01 11:54:48;;;;;;;0.40;0.30;;;;;;;5.22;92.56;100146.28;5033350;28;20866;-72
2022/02/01 11:57:18;;;;;;;0.40;0.20;;;;;;;5.22;92.25;100138.22;5033743;28;20575;-73
2022/02/01 11:59:56;;;;;;;0.40;0.30;;;;;;;5.32;92.15;100118.56;5033885;28;20550;-72
2022/02/01 12:02:34;;;;;;;0.40;0.30;;;;;;;5.35;91.07;100127.94;5033347;28;20416;-73
2022/02/01 12:05:09;;;;;;;0.40;0.30;;;;;;;5.39;90.99;100126.31;5033363;28;20793;-72
2022/02/01 12:07:50;;;;;;;0.40;0.30;;;;;;;5.41;90.95;100118.78;5033139;28;20844;-72
2022/02/01 12:10:18;;;;;;;0.40;0.30;;;;;;;5.35;91.23;100118.00;5033490;28;20477;-73
2022/02/01 12:12:47;;;;;;;0.40;0.23;;;;;;;5.32;90.96;100105.16;5033453;28;20451;-73
2022/02/01 12:15:14;;;;;;;0.40;0.20;;;;;;;5.27;91.28;100095.25;5033382;28;20514;-73
2022/02/01 12:17:44;;;;;;;0.40;0.30;;;;;;;5.27;91.31;100084.50;5033356;28;20443;-72
2022/02/01 12:20:16;;;;;;;0.40;0.20;;;;;;;5.26;91.70;100077.50;5033091;28;20459;-72
2022/02/01 12:23:02;;;;;;;0.40;0.30;;;;;;;5.22;91.36;100062.22;5033408;28;20428;-72
2022/02/01 12:25:29;;;;;;;0.40;0.20;;;;;;;5.16;91.66;100053.41;5033404;28;20473;-73
2022/02/01 12:27:57;;;;;;;0.40;0.30;;;;;;;5.12;92.16;100051.56;5033026;28;20490;-72
2022/02/01 12:30:23;;;;;;;0.40;0.20;;;;;;;5.11;92.33;100045.38;5033152;28;20463;-72
2022/02/01 12:32:51;;;;;;;0.40;0.27;;;;;;;5.10;90.79;100030.38;5033282;28;20444;-73
2022/02/01 12:35:18;;;;;;;0.40;0.30;;;;;;;5.09;90.50;100015.34;5033089;28;20485;-72
2022/02/01 12:37:44;;;;;;;0.40;0.20;;;;;;;5.11;91.53;99999.75;5033222;28;20443;-73
2022/02/01 12:40:12;;;;;;;0.40;0.30;;;;;;;5.13;90.85;99988.72;5033100;28;20471;-73
2022/02/01 12:42:45;;;;;;;0.40;0.30;;;;;;;5.11;91.23;99980.97;5033144;28;20455;-73
2022/02/01 12:48:01;;;;;;;0.40;0.30;;;;;;;4.94;93.47;99948.34;5032922;28;20415;-72